sensor_id;sensor_type;location;lat;lon;timestamp;P1;durP1;ratioP1;P2;durP2;ratioP2
52266;SDS011;38223;50.940;4.034;2022-07-21T00:00:54;5.62;;;4.10;;
52266;SDS011;38223;50.940;4.034;2022-07-21T00:03:25;4.58;;;4.05;;
52266;SDS011;38223;50.940;4.034;2022-07-21T00:06:00;4.75;;;3.42;;
52266;SDS011;38223;50.940;4.034;2022-07-21T00:08:31;6.30;;;3.83;;
52266;SDS011;38223;50.940;4.034;2022-07-21T00:11:06;4.62;;;3.72;;
52266;SDS011;38223;50.940;4.034;2022-07-21T00:13:47;4.12;;;3.72;;
52266;SDS011;38223;50.940;4.034;2022-07-21T00:16:19;5.92;;;4.47;;
52266;SDS011;38223;50.940;4.034;2022-07-21T00:18:55;4.50;;;4.10;;
52266;SDS011;38223;50.940;4.034;2022-07-21T00:21:27;4.40;;;4.00;;
52266;SDS011;38223;50.940;4.034;2022-07-21T00:24:01;5.40;;;4.05;;
52266;SDS011;38223;50.940;4.034;2022-07-21T00:26:35;4.70;;;4.20;;
52266;SDS011;38223;50.940;4.034;2022-07-21T00:29:05;6.78;;;3.42;;
52266;SDS011;38223;50.940;4.034;2022-07-21T00:31:40;4.22;;;3.83;;
52266;SDS011;38223;50.940;4.034;2022-07-21T00:34:15;4.25;;;3.83;;
52266;SDS011;38223;50.940;4.034;2022-07-21T00:36:49;4.92;;;4.37;;
52266;SDS011;38223;50.940;4.034;2022-07-21T00:39:19;4.80;;;4.40;;
52266;SDS011;38223;50.940;4.034;2022-07-21T00:41:51;5.05;;;4.42;;
52266;SDS011;38223;50.940;4.034;2022-07-21T00:44:23;6.65;;;4.40;;
52266;SDS011;38223;50.940;4.034;2022-07-21T00:46:59;5.40;;;4.90;;
52266;SDS011;38223;50.940;4.034;2022-07-21T00:49:29;4.75;;;4.35;;
52266;SDS011;38223;50.940;4.034;2022-07-21T00:52:02;6.72;;;4.80;;
52266;SDS011;38223;50.940;4.034;2022-07-21T00:54:32;5.12;;;4.72;;
52266;SDS011;38223;50.940;4.034;2022-07-21T00:57:08;6.45;;;4.30;;
52266;SDS011;38223;50.940;4.034;2022-07-21T00:59:41;6.22;;;4.80;;
52266;SDS011;38223;50.940;4.034;2022-07-21T01:02:13;5.22;;;4.72;;
52266;SDS011;38223;50.940;4.034;2022-07-21T01:04:48;5.62;;;4.97;;
52266;SDS011;38223;50.940;4.034;2022-07-21T01:07:17;5.00;;;4.60;;
52266;SDS011;38223;50.940;4.034;2022-07-21T01:09:53;5.50;;;5.00;;
52266;SDS011;38223;50.940;4.034;2022-07-21T01:12:23;5.00;;;4.60;;
52266;SDS011;38223;50.940;4.034;2022-07-21T01:14:59;5.65;;;5.05;;
52266;SDS011;38223;50.940;4.034;2022-07-21T01:17:31;5.50;;;4.58;;
52266;SDS011;38223;50.940;4.034;2022-07-21T01:20:04;5.08;;;4.55;;
52266;SDS011;38223;50.940;4.034;2022-07-21T01:22:37;8.65;;;5.08;;
52266;SDS011;38223;50.940;4.034;2022-07-21T01:25:15;5.37;;;4.70;;
52266;SDS011;38223;50.940;4.034;2022-07-21T01:27:46;7.17;;;5.20;;
52266;SDS011;38223;50.940;4.034;2022-07-21T01:30:21;5.55;;;4.95;;
52266;SDS011;38223;50.940;4.034;2022-07-21T01:32:50;7.22;;;5.00;;
52266;SDS011;38223;50.940;4.034;2022-07-21T01:35:25;9.25;;;5.30;;
52266;SDS011;38223;50.940;4.034;2022-07-21T01:37:54;6.85;;;5.65;;
52266;SDS011;38223;50.940;4.034;2022-07-21T01:40:28;6.47;;;5.20;;
52266;SDS011;38223;50.940;4.034;2022-07-21T01:43:15;7.47;;;5.47;;
52266;SDS011;38223;50.940;4.034;2022-07-21T01:45:48;8.85;;;5.70;;
52266;SDS011;38223;50.940;4.034;2022-07-21T01:48:19;6.70;;;6.03;;
52266;SDS011;38223;50.940;4.034;2022-07-21T01:50:55;7.08;;;6.20;;
52266;SDS011;38223;50.940;4.034;2022-07-21T01:53:25;7.53;;;5.92;;
52266;SDS011;38223;50.940;4.034;2022-07-21T01:56:02;9.03;;;5.90;;
52266;SDS011;38223;50.940;4.034;2022-07-21T01:58:42;6.47;;;5.62;;
52266;SDS011;38223;50.940;4.034;2022-07-21T02:01:15;8.45;;;6.10;;
52266;SDS011;38223;50.940;4.034;2022-07-21T02:03:48;11.30;;;6.90;;
52266;SDS011;38223;50.940;4.034;2022-07-21T02:06:21;6.75;;;6.17;;
52266;SDS011;38223;50.940;4.034;2022-07-21T02:08:53;8.20;;;6.78;;
52266;SDS011;38223;50.940;4.034;2022-07-21T02:11:25;7.80;;;6.67;;
52266;SDS011;38223;50.940;4.034;2022-07-21T02:13:57;7.58;;;6.58;;
52266;SDS011;38223;50.940;4.034;2022-07-21T02:16:29;8.05;;;6.33;;
52266;SDS011;38223;50.940;4.034;2022-07-21T02:18:59;7.35;;;6.65;;
52266;SDS011;38223;50.940;4.034;2022-07-21T02:21:31;7.05;;;6.45;;
52266;SDS011;38223;50.940;4.034;2022-07-21T02:24:03;8.48;;;6.97;;
52266;SDS011;38223;50.940;4.034;2022-07-21T02:26:33;8.25;;;6.62;;
52266;SDS011;38223;50.940;4.034;2022-07-21T02:29:08;8.68;;;7.28;;
52266;SDS011;38223;50.940;4.034;2022-07-21T02:31:37;13.78;;;7.92;;
52266;SDS011;38223;50.940;4.034;2022-07-21T02:34:12;8.23;;;7.17;;
52266;SDS011;38223;50.940;4.034;2022-07-21T02:36:44;9.33;;;7.58;;
52266;SDS011;38223;50.940;4.034;2022-07-21T02:39:14;8.80;;;8.00;;
52266;SDS011;38223;50.940;4.034;2022-07-21T02:41:44;7.97;;;6.95;;
52266;SDS011;38223;50.940;4.034;2022-07-21T02:44:17;8.98;;;8.03;;
52266;SDS011;38223;50.940;4.034;2022-07-21T02:46:47;9.33;;;7.22;;
52266;SDS011;38223;50.940;4.034;2022-07-21T02:49:16;10.20;;;8.00;;
52266;SDS011;38223;50.940;4.034;2022-07-21T02:51:49;8.30;;;7.45;;
52266;SDS011;38223;50.940;4.034;2022-07-21T02:54:23;8.60;;;7.40;;
52266;SDS011;38223;50.940;4.034;2022-07-21T02:56:55;10.05;;;7.55;;
52266;SDS011;38223;50.940;4.034;2022-07-21T02:59:30;8.00;;;7.25;;
52266;SDS011;38223;50.940;4.034;2022-07-21T03:02:01;8.93;;;7.90;;
52266;SDS011;38223;50.940;4.034;2022-07-21T03:04:35;9.85;;;7.60;;
52266;SDS011;38223;50.940;4.034;2022-07-21T03:07:07;10.98;;;8.03;;
52266;SDS011;38223;50.940;4.034;2022-07-21T03:09:42;8.35;;;7.40;;
52266;SDS011;38223;50.940;4.034;2022-07-21T03:17:10;11.70;;;8.83;;
52266;SDS011;38223;50.940;4.034;2022-07-21T03:19:45;14.85;;;8.70;;
52266;SDS011;38223;50.940;4.034;2022-07-21T03:22:19;14.05;;;8.75;;
52266;SDS011;38223;50.940;4.034;2022-07-21T03:24:53;10.23;;;8.50;;
52266;SDS011;38223;50.940;4.034;2022-07-21T03:27:23;11.95;;;8.30;;
52266;SDS011;38223;50.940;4.034;2022-07-21T03:29:58;9.50;;;8.18;;
52266;SDS011;38223;50.940;4.034;2022-07-21T03:32:27;12.03;;;9.13;;
52266;SDS011;38223;50.940;4.034;2022-07-21T03:35:02;10.35;;;8.88;;
52266;SDS011;38223;50.940;4.034;2022-07-21T03:37:39;11.97;;;9.50;;
52266;SDS011;38223;50.940;4.034;2022-07-21T03:40:08;14.45;;;9.53;;
52266;SDS011;38223;50.940;4.034;2022-07-21T03:42:42;13.53;;;9.35;;
52266;SDS011;38223;50.940;4.034;2022-07-21T03:45:11;13.05;;;10.05;;
52266;SDS011;38223;50.940;4.034;2022-07-21T03:47:42;15.03;;;10.05;;
52266;SDS011;38223;50.940;4.034;2022-07-21T03:50:18;12.47;;;10.20;;
52266;SDS011;38223;50.940;4.034;2022-07-21T03:52:47;11.33;;;10.30;;
52266;SDS011;38223;50.940;4.034;2022-07-21T03:55:21;13.08;;;11.03;;
52266;SDS011;38223;50.940;4.034;2022-07-21T03:57:57;13.55;;;11.93;;
52266;SDS011;38223;50.940;4.034;2022-07-21T04:00:38;15.88;;;10.95;;
52266;SDS011;38223;50.940;4.034;2022-07-21T04:03:13;14.78;;;11.25;;
52266;SDS011;38223;50.940;4.034;2022-07-21T04:05:52;14.53;;;11.93;;
52266;SDS011;38223;50.940;4.034;2022-07-21T04:08:20;20.40;;;13.15;;
52266;SDS011;38223;50.940;4.034;2022-07-21T04:10:52;18.48;;;13.25;;
52266;SDS011;38223;50.940;4.034;2022-07-21T04:13:25;15.10;;;12.33;;
52266;SDS011;38223;50.940;4.034;2022-07-21T04:15:57;17.45;;;13.88;;
52266;SDS011;38223;50.940;4.034;2022-07-21T04:18:35;21.95;;;14.33;;
52266;SDS011;38223;50.940;4.034;2022-07-21T04:21:07;20.30;;;14.63;;
52266;SDS011;38223;50.940;4.034;2022-07-21T04:23:36;22.98;;;14.95;;
52266;SDS011;38223;50.940;4.034;2022-07-21T04:26:12;23.30;;;16.00;;
52266;SDS011;38223;50.940;4.034;2022-07-21T04:28:42;22.27;;;16.07;;
52266;SDS011;38223;50.940;4.034;2022-07-21T04:31:16;19.17;;;15.72;;
52266;SDS011;38223;50.940;4.034;2022-07-21T04:33:45;25.45;;;17.80;;
52266;SDS011;38223;50.940;4.034;2022-07-21T04:36:16;21.37;;;17.05;;
52266;SDS011;38223;50.940;4.034;2022-07-21T04:38:44;19.60;;;17.57;;
52266;SDS011;38223;50.940;4.034;2022-07-21T04:41:15;25.85;;;19.30;;
52266;SDS011;38223;50.940;4.034;2022-07-21T04:43:43;27.62;;;19.92;;
52266;SDS011;38223;50.940;4.034;2022-07-21T04:46:17;29.57;;;20.90;;
52266;SDS011;38223;50.940;4.034;2022-07-21T04:48:53;29.67;;;21.35;;
52266;SDS011;38223;50.940;4.034;2022-07-21T04:51:28;27.95;;;22.17;;
52266;SDS011;38223;50.940;4.034;2022-07-21T04:53:57;29.82;;;21.90;;
52266;SDS011;38223;50.940;4.034;2022-07-21T04:56:29;30.70;;;21.73;;
52266;SDS011;38223;50.940;4.034;2022-07-21T04:59:00;30.45;;;22.42;;
52266;SDS011;38223;50.940;4.034;2022-07-21T05:01:35;36.05;;;22.48;;
52266;SDS011;38223;50.940;4.034;2022-07-21T05:04:11;26.62;;;21.55;;
52266;SDS011;38223;50.940;4.034;2022-07-21T05:06:43;35.13;;;22.50;;
52266;SDS011;38223;50.940;4.034;2022-07-21T05:09:17;31.60;;;22.80;;
52266;SDS011;38223;50.940;4.034;2022-07-21T05:11:49;33.18;;;22.62;;
52266;SDS011;38223;50.940;4.034;2022-07-21T05:14:20;34.63;;;22.87;;
52266;SDS011;38223;50.940;4.034;2022-07-21T05:16:55;30.37;;;24.00;;
52266;SDS011;38223;50.940;4.034;2022-07-21T05:19:28;29.45;;;22.95;;
52266;SDS011;38223;50.940;4.034;2022-07-21T05:22:01;32.85;;;23.30;;
52266;SDS011;38223;50.940;4.034;2022-07-21T05:24:37;34.05;;;24.92;;
52266;SDS011;38223;50.940;4.034;2022-07-21T05:27:09;32.48;;;24.55;;
52266;SDS011;38223;50.940;4.034;2022-07-21T05:29:39;34.53;;;24.85;;
52266;SDS011;38223;50.940;4.034;2022-07-21T05:32:14;39.08;;;25.17;;
52266;SDS011;38223;50.940;4.034;2022-07-21T05:34:43;38.10;;;25.85;;
52266;SDS011;38223;50.940;4.034;2022-07-21T05:37:13;37.48;;;26.45;;
52266;SDS011;38223;50.940;4.034;2022-07-21T05:39:46;38.20;;;26.77;;
52266;SDS011;38223;50.940;4.034;2022-07-21T05:42:17;42.23;;;27.73;;
52266;SDS011;38223;50.940;4.034;2022-07-21T05:44:51;42.80;;;27.85;;
52266;SDS011;38223;50.940;4.034;2022-07-21T05:47:21;37.30;;;28.40;;
52266;SDS011;38223;50.940;4.034;2022-07-21T05:49:53;39.23;;;27.27;;
52266;SDS011;38223;50.940;4.034;2022-07-21T05:52:28;46.13;;;29.65;;
52266;SDS011;38223;50.940;4.034;2022-07-21T05:55:00;41.50;;;29.18;;
52266;SDS011;38223;50.940;4.034;2022-07-21T05:57:31;44.18;;;29.37;;
52266;SDS011;38223;50.940;4.034;2022-07-21T06:00:04;43.68;;;29.00;;
52266;SDS011;38223;50.940;4.034;2022-07-21T06:02:41;49.03;;;30.70;;
52266;SDS011;38223;50.940;4.034;2022-07-21T06:05:13;46.48;;;31.40;;
52266;SDS011;38223;50.940;4.034;2022-07-21T06:07:46;54.10;;;33.95;;
52266;SDS011;38223;50.940;4.034;2022-07-21T06:10:18;56.85;;;35.17;;
52266;SDS011;38223;50.940;4.034;2022-07-21T06:12:48;58.50;;;36.08;;
52266;SDS011;38223;50.940;4.034;2022-07-21T06:15:21;62.78;;;35.23;;
52266;SDS011;38223;50.940;4.034;2022-07-21T06:17:52;61.30;;;36.45;;
52266;SDS011;38223;50.940;4.034;2022-07-21T06:20:27;68.22;;;39.15;;
52266;SDS011;38223;50.940;4.034;2022-07-21T06:22:57;79.37;;;39.58;;
52266;SDS011;38223;50.940;4.034;2022-07-21T06:25:34;62.45;;;36.90;;
52266;SDS011;38223;50.940;4.034;2022-07-21T06:28:04;71.95;;;40.05;;
52266;SDS011;38223;50.940;4.034;2022-07-21T06:30:36;69.75;;;39.45;;
52266;SDS011;38223;50.940;4.034;2022-07-21T06:33:08;66.45;;;37.83;;
52266;SDS011;38223;50.940;4.034;2022-07-21T06:35:44;65.70;;;37.53;;
52266;SDS011;38223;50.940;4.034;2022-07-21T06:38:12;71.45;;;40.80;;
52266;SDS011;38223;50.940;4.034;2022-07-21T06:40:51;74.22;;;40.23;;
52266;SDS011;38223;50.940;4.034;2022-07-21T06:43:21;73.05;;;41.83;;
52266;SDS011;38223;50.940;4.034;2022-07-21T06:45:53;71.02;;;41.08;;
52266;SDS011;38223;50.940;4.034;2022-07-21T06:48:22;76.22;;;41.88;;
52266;SDS011;38223;50.940;4.034;2022-07-21T06:50:55;84.97;;;44.30;;
52266;SDS011;38223;50.940;4.034;2022-07-21T06:53:25;74.95;;;44.30;;
52266;SDS011;38223;50.940;4.034;2022-07-21T06:56:00;79.25;;;44.08;;
52266;SDS011;38223;50.940;4.034;2022-07-21T06:58:33;74.67;;;43.92;;
52266;SDS011;38223;50.940;4.034;2022-07-21T07:01:09;76.70;;;45.38;;
52266;SDS011;38223;50.940;4.034;2022-07-21T07:03:41;82.82;;;44.23;;
52266;SDS011;38223;50.940;4.034;2022-07-21T07:06:17;82.22;;;45.30;;
52266;SDS011;38223;50.940;4.034;2022-07-21T07:09:07;80.17;;;45.30;;
52266;SDS011;38223;50.940;4.034;2022-07-21T07:11:38;77.95;;;43.80;;
52266;SDS011;38223;50.940;4.034;2022-07-21T07:14:15;74.70;;;41.60;;
52266;SDS011;38223;50.940;4.034;2022-07-21T07:16:47;72.17;;;44.27;;
52266;SDS011;38223;50.940;4.034;2022-07-21T07:19:20;79.40;;;42.58;;
52266;SDS011;38223;50.940;4.034;2022-07-21T07:21:54;70.55;;;43.95;;
52266;SDS011;38223;50.940;4.034;2022-07-21T07:24:25;75.70;;;42.35;;
52266;SDS011;38223;50.940;4.034;2022-07-21T07:26:58;67.62;;;40.33;;
52266;SDS011;38223;50.940;4.034;2022-07-21T07:29:29;72.00;;;41.37;;
52266;SDS011;38223;50.940;4.034;2022-07-21T07:32:03;71.87;;;40.65;;
52266;SDS011;38223;50.940;4.034;2022-07-21T07:34:36;70.22;;;41.05;;
52266;SDS011;38223;50.940;4.034;2022-07-21T07:37:07;62.38;;;38.88;;
52266;SDS011;38223;50.940;4.034;2022-07-21T07:39:41;61.08;;;38.35;;
52266;SDS011;38223;50.940;4.034;2022-07-21T07:42:12;55.03;;;31.73;;
52266;SDS011;38223;50.940;4.034;2022-07-21T07:44:40;51.77;;;29.77;;
52266;SDS011;38223;50.940;4.034;2022-07-21T07:47:09;41.02;;;27.37;;
52266;SDS011;38223;50.940;4.034;2022-07-21T07:49:41;45.50;;;27.90;;
52266;SDS011;38223;50.940;4.034;2022-07-21T07:52:11;37.78;;;25.60;;
52266;SDS011;38223;50.940;4.034;2022-07-21T07:54:41;37.08;;;24.05;;
52266;SDS011;38223;50.940;4.034;2022-07-21T07:57:18;35.88;;;25.62;;
52266;SDS011;38223;50.940;4.034;2022-07-21T07:59:50;44.48;;;26.93;;
52266;SDS011;38223;50.940;4.034;2022-07-21T08:02:26;43.85;;;26.42;;
52266;SDS011;38223;50.940;4.034;2022-07-21T08:05:01;39.63;;;24.90;;
52266;SDS011;38223;50.940;4.034;2022-07-21T08:07:31;39.33;;;23.95;;
52266;SDS011;38223;50.940;4.034;2022-07-21T08:10:09;31.12;;;21.52;;
52266;SDS011;38223;50.940;4.034;2022-07-21T08:12:45;37.05;;;22.45;;
52266;SDS011;38223;50.940;4.034;2022-07-21T08:15:17;32.85;;;20.97;;
52266;SDS011;38223;50.940;4.034;2022-07-21T08:17:56;34.10;;;21.62;;
52266;SDS011;38223;50.940;4.034;2022-07-21T08:20:27;31.90;;;22.27;;
52266;SDS011;38223;50.940;4.034;2022-07-21T08:23:01;34.05;;;22.13;;
52266;SDS011;38223;50.940;4.034;2022-07-21T08:25:35;32.45;;;21.40;;
52266;SDS011;38223;50.940;4.034;2022-07-21T08:28:06;23.95;;;17.75;;
52266;SDS011;38223;50.940;4.034;2022-07-21T08:30:41;23.57;;;14.18;;
52266;SDS011;38223;50.940;4.034;2022-07-21T08:33:10;15.58;;;14.10;;
52266;SDS011;38223;50.940;4.034;2022-07-21T08:35:43;14.03;;;12.03;;
52266;SDS011;38223;50.940;4.034;2022-07-21T08:38:15;11.60;;;10.50;;
52266;SDS011;38223;50.940;4.034;2022-07-21T08:40:47;14.35;;;11.03;;
52266;SDS011;38223;50.940;4.034;2022-07-21T08:43:20;14.30;;;11.30;;
52266;SDS011;38223;50.940;4.034;2022-07-21T08:45:57;15.10;;;10.65;;
52266;SDS011;38223;50.940;4.034;2022-07-21T08:48:29;15.50;;;11.93;;
52266;SDS011;38223;50.940;4.034;2022-07-21T08:51:02;14.60;;;11.45;;
52266;SDS011;38223;50.940;4.034;2022-07-21T08:53:37;19.05;;;12.13;;
52266;SDS011;38223;50.940;4.034;2022-07-21T08:56:09;16.62;;;11.88;;
52266;SDS011;38223;50.940;4.034;2022-07-21T08:58:45;13.30;;;12.00;;
52266;SDS011;38223;50.940;4.034;2022-07-21T09:01:22;15.78;;;12.15;;
52266;SDS011;38223;50.940;4.034;2022-07-21T09:03:52;13.78;;;12.47;;
52266;SDS011;38223;50.940;4.034;2022-07-21T09:06:25;12.63;;;11.18;;
52266;SDS011;38223;50.940;4.034;2022-07-21T09:08:55;13.28;;;9.70;;
52266;SDS011;38223;50.940;4.034;2022-07-21T09:11:29;13.48;;;9.40;;
52266;SDS011;38223;50.940;4.034;2022-07-21T09:16:41;15.57;;;10.73;;
52266;SDS011;38223;50.940;4.034;2022-07-21T09:19:24;13.20;;;11.48;;
52266;SDS011;38223;50.940;4.034;2022-07-21T09:21:59;18.25;;;12.33;;
52266;SDS011;38223;50.940;4.034;2022-07-21T09:24:36;16.52;;;11.90;;
52266;SDS011;38223;50.940;4.034;2022-07-21T09:27:22;13.93;;;11.48;;
52266;SDS011;38223;50.940;4.034;2022-07-21T09:29:58;16.67;;;11.70;;
52266;SDS011;38223;50.940;4.034;2022-07-21T09:32:30;15.98;;;10.35;;
52266;SDS011;38223;50.940;4.034;2022-07-21T09:35:11;14.13;;;10.75;;
52266;SDS011;38223;50.940;4.034;2022-07-21T09:37:42;11.53;;;9.98;;
52266;SDS011;38223;50.940;4.034;2022-07-21T09:40:14;17.55;;;11.15;;
52266;SDS011;38223;50.940;4.034;2022-07-21T09:42:48;16.23;;;11.30;;
52266;SDS011;38223;50.940;4.034;2022-07-21T09:45:22;22.98;;;11.12;;
52266;SDS011;38223;50.940;4.034;2022-07-21T09:47:51;12.63;;;10.68;;
52266;SDS011;38223;50.940;4.034;2022-07-21T09:50:24;16.75;;;11.20;;
52266;SDS011;38223;50.940;4.034;2022-07-21T09:52:53;14.90;;;11.55;;
52266;SDS011;38223;50.940;4.034;2022-07-21T09:55:26;16.85;;;10.65;;
52266;SDS011;38223;50.940;4.034;2022-07-21T09:58:00;16.45;;;11.55;;
52266;SDS011;38223;50.940;4.034;2022-07-21T10:00:33;16.15;;;11.20;;
52266;SDS011;38223;50.940;4.034;2022-07-21T10:03:08;19.57;;;11.08;;
52266;SDS011;38223;50.940;4.034;2022-07-21T10:05:36;15.78;;;10.82;;
52266;SDS011;38223;50.940;4.034;2022-07-21T10:08:07;18.65;;;11.38;;
52266;SDS011;38223;50.940;4.034;2022-07-21T10:10:42;23.90;;;11.43;;
52266;SDS011;38223;50.940;4.034;2022-07-21T10:13:16;20.17;;;10.80;;
52266;SDS011;38223;50.940;4.034;2022-07-21T10:15:51;21.70;;;10.35;;
52266;SDS011;38223;50.940;4.034;2022-07-21T10:18:26;17.15;;;10.60;;
52266;SDS011;38223;50.940;4.034;2022-07-21T10:21:10;20.20;;;10.55;;
52266;SDS011;38223;50.940;4.034;2022-07-21T10:23:53;24.98;;;10.55;;
52266;SDS011;38223;50.940;4.034;2022-07-21T10:26:29;19.60;;;10.48;;
52266;SDS011;38223;50.940;4.034;2022-07-21T10:29:01;18.27;;;9.53;;
52266;SDS011;38223;50.940;4.034;2022-07-21T10:31:31;16.75;;;8.73;;
52266;SDS011;38223;50.940;4.034;2022-07-21T10:34:04;14.58;;;9.20;;
52266;SDS011;38223;50.940;4.034;2022-07-21T10:39:13;16.87;;;8.75;;
52266;SDS011;38223;50.940;4.034;2022-07-21T10:41:55;19.37;;;8.45;;
52266;SDS011;38223;50.940;4.034;2022-07-21T10:47:05;13.83;;;8.05;;
52266;SDS011;38223;50.940;4.034;2022-07-21T10:49:52;11.03;;;7.17;;
52266;SDS011;38223;50.940;4.034;2022-07-21T10:57:47;12.15;;;6.10;;
52266;SDS011;38223;50.940;4.034;2022-07-21T11:00:31;10.95;;;6.15;;
52266;SDS011;38223;50.940;4.034;2022-07-21T11:02:59;13.03;;;6.10;;
52266;SDS011;38223;50.940;4.034;2022-07-21T11:05:33;10.48;;;6.17;;
52266;SDS011;38223;50.940;4.034;2022-07-21T11:08:10;9.35;;;6.28;;
52266;SDS011;38223;50.940;4.034;2022-07-21T11:10:44;9.30;;;6.20;;
52266;SDS011;38223;50.940;4.034;2022-07-21T11:13:23;9.35;;;6.08;;
52266;SDS011;38223;50.940;4.034;2022-07-21T11:15:59;11.57;;;5.65;;
52266;SDS011;38223;50.940;4.034;2022-07-21T11:18:31;13.03;;;6.25;;
52266;SDS011;38223;50.940;4.034;2022-07-21T11:21:08;10.43;;;5.80;;
52266;SDS011;38223;50.940;4.034;2022-07-21T11:23:42;9.33;;;5.25;;
52266;SDS011;38223;50.940;4.034;2022-07-21T11:26:16;12.23;;;6.10;;
52266;SDS011;38223;50.940;4.034;2022-07-21T11:28:47;12.88;;;5.28;;
52266;SDS011;38223;50.940;4.034;2022-07-21T11:31:20;11.15;;;4.95;;
52266;SDS011;38223;50.940;4.034;2022-07-21T11:33:51;14.30;;;5.35;;
52266;SDS011;38223;50.940;4.034;2022-07-21T11:36:27;10.93;;;4.60;;
52266;SDS011;38223;50.940;4.034;2022-07-21T11:39:04;11.53;;;4.03;;
52266;SDS011;38223;50.940;4.034;2022-07-21T11:41:35;6.12;;;3.37;;
52266;SDS011;38223;50.940;4.034;2022-07-21T11:44:09;8.43;;;3.98;;
52266;SDS011;38223;50.940;4.034;2022-07-21T11:46:49;7.67;;;3.90;;
52266;SDS011;38223;50.940;4.034;2022-07-21T11:49:25;6.97;;;3.47;;
52266;SDS011;38223;50.940;4.034;2022-07-21T11:54:37;10.15;;;4.03;;
52266;SDS011;38223;50.940;4.034;2022-07-21T11:57:17;14.60;;;4.25;;
52266;SDS011;38223;50.940;4.034;2022-07-21T11:59:51;13.60;;;4.03;;
52266;SDS011;38223;50.940;4.034;2022-07-21T12:02:30;13.75;;;4.83;;
52266;SDS011;38223;50.940;4.034;2022-07-21T12:05:01;15.93;;;5.20;;
52266;SDS011;38223;50.940;4.034;2022-07-21T12:07:38;11.55;;;4.87;;
52266;SDS011;38223;50.940;4.034;2022-07-21T12:10:14;9.65;;;4.92;;
52266;SDS011;38223;50.940;4.034;2022-07-21T12:12:46;16.62;;;5.45;;
52266;SDS011;38223;50.940;4.034;2022-07-21T12:15:22;13.48;;;5.30;;
52266;SDS011;38223;50.940;4.034;2022-07-21T12:18:05;12.90;;;5.78;;
52266;SDS011;38223;50.940;4.034;2022-07-21T12:20:42;9.68;;;5.22;;
52266;SDS011;38223;50.940;4.034;2022-07-21T12:23:18;13.70;;;5.28;;
52266;SDS011;38223;50.940;4.034;2022-07-21T12:25:49;14.15;;;5.97;;
52266;SDS011;38223;50.940;4.034;2022-07-21T12:28:44;16.95;;;5.35;;
52266;SDS011;38223;50.940;4.034;2022-07-21T12:31:13;14.73;;;5.53;;
52266;SDS011;38223;50.940;4.034;2022-07-21T12:33:47;11.65;;;5.70;;
52266;SDS011;38223;50.940;4.034;2022-07-21T12:36:21;10.03;;;5.12;;
52266;SDS011;38223;50.940;4.034;2022-07-21T12:38:54;13.83;;;5.67;;
52266;SDS011;38223;50.940;4.034;2022-07-21T12:41:25;14.87;;;5.35;;
52266;SDS011;38223;50.940;4.034;2022-07-21T12:43:57;11.93;;;5.65;;
52266;SDS011;38223;50.940;4.034;2022-07-21T12:46:33;17.40;;;6.17;;
52266;SDS011;38223;50.940;4.034;2022-07-21T12:49:05;12.98;;;6.08;;
52266;SDS011;38223;50.940;4.034;2022-07-21T12:51:42;17.37;;;5.70;;
52266;SDS011;38223;50.940;4.034;2022-07-21T12:54:11;13.03;;;4.95;;
52266;SDS011;38223;50.940;4.034;2022-07-21T12:56:42;15.83;;;5.78;;
52266;SDS011;38223;50.940;4.034;2022-07-21T13:02:03;14.47;;;5.85;;
52266;SDS011;38223;50.940;4.034;2022-07-21T13:04:33;17.23;;;5.85;;
52266;SDS011;38223;50.940;4.034;2022-07-21T13:07:09;17.17;;;7.03;;
52266;SDS011;38223;50.940;4.034;2022-07-21T13:09:39;15.78;;;5.92;;
52266;SDS011;38223;50.940;4.034;2022-07-21T13:12:08;16.10;;;6.00;;
52266;SDS011;38223;50.940;4.034;2022-07-21T13:14:45;13.45;;;5.60;;
52266;SDS011;38223;50.940;4.034;2022-07-21T13:17:18;20.32;;;6.70;;
52266;SDS011;38223;50.940;4.034;2022-07-21T13:19:50;19.35;;;5.83;;
52266;SDS011;38223;50.940;4.034;2022-07-21T13:22:23;13.78;;;5.87;;
52266;SDS011;38223;50.940;4.034;2022-07-21T13:24:56;18.40;;;6.78;;
52266;SDS011;38223;50.940;4.034;2022-07-21T13:27:27;18.15;;;5.90;;
52266;SDS011;38223;50.940;4.034;2022-07-21T13:30:00;18.30;;;6.00;;
52266;SDS011;38223;50.940;4.034;2022-07-21T13:32:36;15.58;;;5.72;;
52266;SDS011;38223;50.940;4.034;2022-07-21T13:35:10;14.53;;;5.30;;
52266;SDS011;38223;50.940;4.034;2022-07-21T13:37:42;12.47;;;5.92;;
52266;SDS011;38223;50.940;4.034;2022-07-21T13:40:14;12.65;;;5.78;;
52266;SDS011;38223;50.940;4.034;2022-07-21T13:42:52;14.13;;;5.30;;
52266;SDS011;38223;50.940;4.034;2022-07-21T13:45:24;12.60;;;5.35;;
52266;SDS011;38223;50.940;4.034;2022-07-21T13:47:56;18.23;;;5.05;;
52266;SDS011;38223;50.940;4.034;2022-07-21T13:50:47;13.95;;;5.05;;
52266;SDS011;38223;50.940;4.034;2022-07-21T13:53:25;15.03;;;5.75;;
52266;SDS011;38223;50.940;4.034;2022-07-21T13:55:56;13.00;;;4.55;;
52266;SDS011;38223;50.940;4.034;2022-07-21T13:58:29;15.15;;;4.83;;
52266;SDS011;38223;50.940;4.034;2022-07-21T14:01:03;11.73;;;4.40;;
52266;SDS011;38223;50.940;4.034;2022-07-21T14:03:35;21.65;;;5.92;;
52266;SDS011;38223;50.940;4.034;2022-07-21T14:06:10;12.55;;;5.15;;
52266;SDS011;38223;50.940;4.034;2022-07-21T14:08:39;12.93;;;4.92;;
52266;SDS011;38223;50.940;4.034;2022-07-21T14:11:14;10.90;;;4.55;;
52266;SDS011;38223;50.940;4.034;2022-07-21T14:13:48;12.03;;;3.95;;
52266;SDS011;38223;50.940;4.034;2022-07-21T14:16:22;11.33;;;4.40;;
52266;SDS011;38223;50.940;4.034;2022-07-21T14:18:52;11.95;;;4.53;;
52266;SDS011;38223;50.940;4.034;2022-07-21T14:21:25;10.15;;;4.45;;
52266;SDS011;38223;50.940;4.034;2022-07-21T14:24:00;9.23;;;4.75;;
52266;SDS011;38223;50.940;4.034;2022-07-21T14:26:46;13.32;;;4.37;;
52266;SDS011;38223;50.940;4.034;2022-07-21T14:29:20;7.87;;;4.05;;
52266;SDS011;38223;50.940;4.034;2022-07-21T14:31:54;8.78;;;3.98;;
52266;SDS011;38223;50.940;4.034;2022-07-21T14:34:26;9.40;;;4.10;;
52266;SDS011;38223;50.940;4.034;2022-07-21T14:36:59;9.30;;;4.03;;
52266;SDS011;38223;50.940;4.034;2022-07-21T14:39:29;11.28;;;4.10;;
52266;SDS011;38223;50.940;4.034;2022-07-21T14:42:03;10.45;;;4.25;;
52266;SDS011;38223;50.940;4.034;2022-07-21T14:44:36;10.58;;;4.30;;
52266;SDS011;38223;50.940;4.034;2022-07-21T14:47:09;8.78;;;4.42;;
52266;SDS011;38223;50.940;4.034;2022-07-21T14:49:43;16.10;;;4.03;;
52266;SDS011;38223;50.940;4.034;2022-07-21T14:52:14;11.90;;;4.08;;
52266;SDS011;38223;50.940;4.034;2022-07-21T14:54:48;11.85;;;4.20;;
52266;SDS011;38223;50.940;4.034;2022-07-21T14:57:18;8.30;;;3.62;;
52266;SDS011;38223;50.940;4.034;2022-07-21T14:59:53;13.28;;;4.62;;
52266;SDS011;38223;50.940;4.034;2022-07-21T15:02:23;15.00;;;4.35;;
52266;SDS011;38223;50.940;4.034;2022-07-21T15:05:03;13.43;;;4.03;;
52266;SDS011;38223;50.940;4.034;2022-07-21T15:07:34;15.80;;;4.53;;
52266;SDS011;38223;50.940;4.034;2022-07-21T15:10:08;10.58;;;4.42;;
52266;SDS011;38223;50.940;4.034;2022-07-21T15:12:59;10.10;;;3.77;;
52266;SDS011;38223;50.940;4.034;2022-07-21T15:15:31;11.12;;;3.83;;
52266;SDS011;38223;50.940;4.034;2022-07-21T15:18:04;10.08;;;4.30;;
52266;SDS011;38223;50.940;4.034;2022-07-21T15:20:35;11.35;;;4.15;;
52266;SDS011;38223;50.940;4.034;2022-07-21T15:23:07;16.02;;;4.50;;
52266;SDS011;38223;50.940;4.034;2022-07-21T15:25:38;16.42;;;4.58;;
52266;SDS011;38223;50.940;4.034;2022-07-21T15:28:10;15.72;;;4.42;;
52266;SDS011;38223;50.940;4.034;2022-07-21T15:30:45;10.43;;;4.12;;